Time;durP1;ratioP1;P1;durP2;ratioP2;P2;SDS_P1;SDS_P2;PMS_P1;PMS_P2;Temp;Humidity;BMP_temperature;BMP_pressure;BME280_temperature;BME280_humidity;BME280_pressure;Samples;Min_cycle;Max_cycle;Signal;HPM_P1;HPM_P2
2022/01/16 00:01:02;;;;;;;20.98;14.52;;;;;;;;;;5072695;28;20040;-68
2022/01/16 00:06:13;;;;;;;23.60;14.07;;;;;;;;;;5076170;28;20419;-68
2022/01/16 00:08:39;;;;;;;23.48;14.93;;;;;;;;;;5075916;28;20456;-68
2022/01/16 00:11:05;;;;;;;21.55;13.85;;;;;;;;;;5078821;28;20051;-67
2022/01/16 00:13:31;;;;;;;24.10;14.85;;;;;;;;;;5086883;28;20080;-67
2022/01/16 00:15:57;;;;;;;21.77;13.38;;;;;;;;;;5052647;28;20021;-69
2022/01/16 00:18:29;;;;;;;24.10;13.38;;;;;;;;;;5052801;28;20402;-67
2022/01/16 00:20:56;;;;;;;25.85;14.90;;;;;;;;;;5035955;28;20074;-67
2022/01/16 00:23:27;;;;;;;23.83;14.70;;;;;;;;;;5034670;28;20037;-68
2022/01/16 00:25:54;;;;;;;27.60;14.65;;;;;;;;;;5053387;28;20029;-67
2022/01/16 00:28:21;;;;;;;29.15;15.60;;;;;;;;;;5055934;28;20461;-65
2022/01/16 00:30:47;;;;;;;35.95;19.08;;;;;;;;;;5055924;28;20036;-68
2022/01/16 00:33:14;;;;;;;34.55;18.45;;;;;;;;;;5061161;28;20071;-69
2022/01/16 00:35:40;;;;;;;32.53;18.10;;;;;;;;;;5075817;28;20066;-68
2022/01/16 00:38:06;;;;;;;26.13;16.35;;;;;;;;;;5069207;28;20034;-68
2022/01/16 00:40:32;;;;;;;34.45;17.02;;;;;;;;;;5037782;28;20040;-69
2022/01/16 00:42:58;;;;;;;28.88;16.17;;;;;;;;;;5055623;28;20020;-69
2022/01/16 00:45:24;;;;;;;29.52;16.05;;;;;;;;;;5037922;28;20029;-68
2022/01/16 00:47:50;;;;;;;31.85;16.58;;;;;;;;;;5055586;28;20025;-69
2022/01/16 00:50:16;;;;;;;27.88;15.82;;;;;;;;;;5037815;28;20104;-69
2022/01/16 00:52:42;;;;;;;29.33;15.43;;;;;;;;;;5055412;28;20057;-68
2022/01/16 00:55:09;;;;;;;55.35;15.07;;;;;;;;;;5071137;28;20026;-69
2022/01/16 00:57:35;;;;;;;26.65;14.60;;;;;;;;;;5074831;28;20047;-69
2022/01/16 01:00:01;;;;;;;21.50;14.55;;;;;;;;;;5074762;28;20111;-69
2022/01/16 01:02:27;;;;;;;25.10;13.18;;;;;;;;;;5075192;28;20024;-69
2022/01/16 01:04:53;;;;;;;32.22;14.73;;;;;;;;;;5074564;28;20032;-69
2022/01/16 01:07:19;;;;;;;24.25;13.45;;;;;;;;;;5077715;28;20033;-72
2022/01/16 01:09:46;;;;;;;25.52;14.45;;;;;;;;;;5061180;28;20536;-64
2022/01/16 01:12:25;;;;;;;31.23;15.25;;;;;;;;;;5062949;28;20040;-66
2022/01/16 01:17:48;;;;;;;29.58;17.58;;;;;;;;;;5056966;28;20038;-64
2022/01/16 01:20:17;;;;;;;31.08;17.42;;;;;;;;;;5074855;28;20020;-64
2022/01/16 01:22:43;;;;;;;36.83;17.40;;;;;;;;;;5071845;28;20107;-64
2022/01/16 01:25:12;;;;;;;39.50;18.27;;;;;;;;;;5056009;28;20020;-64
2022/01/16 01:27:38;;;;;;;39.80;17.80;;;;;;;;;;5074009;28;20442;-63
2022/01/16 01:30:07;;;;;;;33.65;18.88;;;;;;;;;;5074309;28;20028;-63
2022/01/16 01:32:36;;;;;;;34.25;18.40;;;;;;;;;;5055912;28;20063;-64
2022/01/16 01:35:02;;;;;;;35.35;18.73;;;;;;;;;;5056513;28;20059;-63
2022/01/16 01:37:28;;;;;;;40.80;19.42;;;;;;;;;;5073504;28;20035;-64
2022/01/16 01:39:54;;;;;;;38.17;20.00;;;;;;;;;;5074433;28;20020;-66
2022/01/16 01:42:20;;;;;;;35.35;20.55;;;;;;;;;;5074078;28;20020;-64
2022/01/16 01:53:00;;;;;;;34.83;20.15;;;;;;;;;;5073869;28;20075;-68
2022/01/16 01:55:27;;;;;;;37.45;20.90;;;;;;;;;;5073675;28;20051;-63
2022/01/16 01:57:53;;;;;;;35.05;20.13;;;;;;;;;;5067665;28;20094;-66
2022/01/16 02:00:19;;;;;;;44.03;20.35;;;;;;;;;;5054302;28;20028;-69
2022/01/16 02:05:30;;;;;;;35.40;21.30;;;;;;;;;;5075959;28;20029;-67
2022/01/16 02:07:57;;;;;;;43.90;21.92;;;;;;;;;;5075234;28;20025;-63
2022/01/16 02:10:24;;;;;;;38.80;22.52;;;;;;;;;;5074440;28;20400;-64
2022/01/16 02:12:56;;;;;;;43.45;22.85;;;;;;;;;;5076622;28;20378;-63
2022/01/16 02:15:38;;;;;;;45.05;22.75;;;;;;;;;;5094314;28;20348;-63
2022/01/16 02:31:43;;;;;;;41.10;22.02;;;;;;;;;;5074101;28;20035;-63
2022/01/16 02:36:58;;;;;;;37.40;22.40;;;;;;;;;;5073602;28;20062;-65
2022/01/16 02:39:26;;;;;;;45.42;23.95;;;;;;;;;;5038718;28;20472;-66
2022/01/16 02:41:53;;;;;;;37.38;22.05;;;;;;;;;;5053412;28;20460;-64
2022/01/16 02:46:46;;;;;;;40.25;23.38;;;;;;;;;;5053041;28;20037;-65
2022/01/16 02:49:18;;;;;;;38.80;22.25;;;;;;;;;;5052748;28;20023;-65
2022/01/16 02:51:44;;;;;;;41.63;23.75;;;;;;;;;;5053669;28;20491;-64
2022/01/16 02:54:10;;;;;;;40.05;24.02;;;;;;;;;;5053563;28;20036;-64
2022/01/16 02:56:36;;;;;;;40.47;23.05;;;;;;;;;;5035225;28;20048;-64
2022/01/16 02:59:02;;;;;;;40.40;23.17;;;;;;;;;;5053336;28;20028;-64
2022/01/16 03:01:28;;;;;;;34.53;22.08;;;;;;;;;;5053309;28;20032;-64
2022/01/16 03:03:57;;;;;;;42.85;24.02;;;;;;;;;;5065090;28;20029;-66
2022/01/16 03:06:27;;;;;;;38.60;23.80;;;;;;;;;;5076507;28;20051;-64
2022/01/16 03:08:53;;;;;;;36.45;22.45;;;;;;;;;;5046939;28;20033;-65
2022/01/16 03:11:24;;;;;;;33.58;22.27;;;;;;;;;;5061061;28;20046;-64
2022/01/16 03:13:51;;;;;;;35.40;22.13;;;;;;;;;;5056009;28;20078;-64
2022/01/16 03:16:17;;;;;;;39.25;22.30;;;;;;;;;;5073670;28;20471;-64
2022/01/16 03:24:13;;;;;;;35.45;22.98;;;;;;;;;;5086116;28;20558;-64
2022/01/16 03:26:39;;;;;;;37.95;22.17;;;;;;;;;;5052528;28;20037;-65
2022/01/16 03:29:05;;;;;;;38.08;22.05;;;;;;;;;;5067990;28;20025;-67
2022/01/16 03:31:31;;;;;;;38.95;22.85;;;;;;;;;;5072888;28;20053;-64
2022/01/16 03:33:57;;;;;;;36.00;21.73;;;;;;;;;;5054753;28;20396;-64
2022/01/16 03:36:23;;;;;;;41.35;21.30;;;;;;;;;;5072703;28;20028;-66
2022/01/16 03:38:49;;;;;;;32.00;20.48;;;;;;;;;;5072326;28;20056;-64
2022/01/16 03:41:15;;;;;;;30.75;20.20;;;;;;;;;;5053664;28;20028;-64
2022/01/16 03:43:41;;;;;;;36.08;22.02;;;;;;;;;;5072650;28;20031;-66
2022/01/16 03:46:07;;;;;;;30.90;19.80;;;;;;;;;;5072615;28;20391;-67
2022/01/16 03:48:33;;;;;;;33.55;20.60;;;;;;;;;;5072528;28;20028;-64
2022/01/16 03:50:59;;;;;;;31.67;20.45;;;;;;;;;;5072591;28;20033;-68
2022/01/16 03:53:25;;;;;;;30.55;19.80;;;;;;;;;;5054629;28;20120;-67
2022/01/16 03:55:51;;;;;;;30.88;20.40;;;;;;;;;;5072329;28;20043;-66
2022/01/16 03:58:17;;;;;;;29.42;19.27;;;;;;;;;;5072583;28;20032;-68
2022/01/16 04:00:44;;;;;;;30.70;20.77;;;;;;;;;;5073690;28;20452;-68
2022/01/16 04:03:10;;;;;;;30.60;19.42;;;;;;;;;;5076696;28;20037;-67
2022/01/16 04:05:36;;;;;;;31.98;19.67;;;;;;;;;;5076409;28;20048;-68
2022/01/16 04:08:02;;;;;;;27.30;18.90;;;;;;;;;;5076275;28;20063;-65
2022/01/16 04:10:29;;;;;;;27.52;18.25;;;;;;;;;;5076704;28;20027;-69
2022/01/16 04:12:55;;;;;;;26.05;17.95;;;;;;;;;;5077783;28;20028;-68
2022/01/16 04:17:47;;;;;;;27.52;17.73;;;;;;;;;;5076316;28;20423;-67
2022/01/16 04:20:16;;;;;;;26.98;18.02;;;;;;;;;;5076192;28;20063;-67
2022/01/16 04:22:45;;;;;;;30.35;19.00;;;;;;;;;;5076054;28;20024;-68
2022/01/16 04:25:12;;;;;;;36.97;18.33;;;;;;;;;;5076024;28;20095;-67
2022/01/16 04:27:38;;;;;;;31.58;17.88;;;;;;;;;;5075987;28;20029;-68
2022/01/16 04:30:05;;;;;;;28.10;18.33;;;;;;;;;;5076160;28;20048;-68
2022/01/16 04:32:31;;;;;;;27.63;18.13;;;;;;;;;;5075918;28;20052;-66
2022/01/16 04:34:57;;;;;;;22.88;16.52;;;;;;;;;;5075805;28;20074;-68
2022/01/16 04:37:23;;;;;;;24.40;17.25;;;;;;;;;;5057801;28;20028;-68
2022/01/16 04:39:52;;;;;;;23.10;15.82;;;;;;;;;;5055913;28;20036;-67
2022/01/16 04:45:03;;;;;;;23.90;16.02;;;;;;;;;;5075732;28;20028;-66
2022/01/16 04:47:30;;;;;;;25.38;16.90;;;;;;;;;;5075374;28;20036;-65
2022/01/16 04:49:56;;;;;;;25.35;16.50;;;;;;;;;;5075507;28;20024;-68
2022/01/16 04:52:21;;;;;;;21.85;16.15;;;;;;;;;;5075453;28;20051;-64
2022/01/16 04:54:47;;;;;;;23.45;15.35;;;;;;;;;;5075279;28;20025;-67
2022/01/16 04:57:13;;;;;;;26.50;15.73;;;;;;;;;;5075153;28;20254;-64
2022/01/16 04:59:40;;;;;;;25.80;15.82;;;;;;;;;;5075611;28;20028;-66
2022/01/16 05:02:06;;;;;;;25.23;16.10;;;;;;;;;;5075184;28;20024;-63
2022/01/16 05:04:32;;;;;;;20.20;14.50;;;;;;;;;;5058250;28;20465;-63
2022/01/16 05:06:58;;;;;;;22.80;14.82;;;;;;;;;;5054905;28;20492;-64
2022/01/16 05:09:24;;;;;;;19.48;14.40;;;;;;;;;;5055183;28;20043;-65
2022/01/16 05:11:55;;;;;;;20.52;14.23;;;;;;;;;;5077284;28;20423;-63
2022/01/16 05:17:06;;;;;;;20.05;14.05;;;;;;;;;;5095564;28;20497;-63
2022/01/16 05:19:32;;;;;;;18.33;12.98;;;;;;;;;;5095082;28;20024;-66
2022/01/16 05:21:58;;;;;;;18.60;13.30;;;;;;;;;;5095088;28;20028;-64
2022/01/16 05:24:28;;;;;;;18.90;12.57;;;;;;;;;;5095445;28;20028;-65
2022/01/16 05:26:54;;;;;;;17.05;12.30;;;;;;;;;;5094640;28;20067;-65
2022/01/16 05:29:20;;;;;;;15.00;11.25;;;;;;;;;;5059510;28;20071;-66
2022/01/16 05:31:46;;;;;;;15.65;10.63;;;;;;;;;;5056780;28;20112;-63
2022/01/16 05:34:13;;;;;;;15.02;10.27;;;;;;;;;;5073500;28;20147;-65
2022/01/16 05:36:39;;;;;;;14.70;10.68;;;;;;;;;;5074897;28;20032;-66
2022/01/16 05:39:05;;;;;;;12.90;9.65;;;;;;;;;;5074609;28;20020;-65
2022/01/16 05:41:31;;;;;;;12.88;9.50;;;;;;;;;;5056540;28;20499;-66
2022/01/16 05:43:57;;;;;;;15.52;9.68;;;;;;;;;;5074618;28;20021;-63
2022/01/16 05:46:23;;;;;;;11.95;8.43;;;;;;;;;;5074381;28;20033;-65
2022/01/16 05:48:50;;;;;;;12.18;8.52;;;;;;;;;;5073482;28;20029;-65
2022/01/16 05:51:16;;;;;;;13.15;8.60;;;;;;;;;;5074422;28;20376;-66
2022/01/16 05:53:44;;;;;;;13.02;8.10;;;;;;;;;;5074541;28;20078;-62
2022/01/16 05:56:10;;;;;;;12.43;7.57;;;;;;;;;;5074400;28;20075;-63
2022/01/16 05:58:36;;;;;;;12.25;7.38;;;;;;;;;;5074175;28;20487;-63
2022/01/16 06:01:03;;;;;;;12.18;7.07;;;;;;;;;;5074433;28;20029;-63
2022/01/16 06:03:29;;;;;;;10.40;6.47;;;;;;;;;;5066144;28;20419;-66
2022/01/16 06:05:55;;;;;;;8.13;5.47;;;;;;;;;;5054069;28;20040;-64
2022/01/16 06:08:21;;;;;;;8.27;5.43;;;;;;;;;;5054050;28;20020;-63
2022/01/16 06:10:47;;;;;;;8.88;5.20;;;;;;;;;;5059566;28;20027;-66
2022/01/16 06:13:13;;;;;;;7.38;4.93;;;;;;;;;;5093943;28;20494;-66
2022/01/16 06:15:40;;;;;;;9.60;5.45;;;;;;;;;;5075787;28;20024;-63
2022/01/16 06:18:06;;;;;;;7.07;4.63;;;;;;;;;;5094253;28;20028;-67
2022/01/16 06:20:33;;;;;;;7.18;4.25;;;;;;;;;;5093985;28;20055;-65
2022/01/16 06:23:00;;;;;;;6.45;4.05;;;;;;;;;;5053743;28;20473;-63
2022/01/16 06:25:26;;;;;;;5.95;4.32;;;;;;;;;;5035511;28;20033;-64
2022/01/16 06:27:52;;;;;;;5.70;3.80;;;;;;;;;;5058859;28;20438;-64
2022/01/16 06:30:19;;;;;;;4.35;3.25;;;;;;;;;;5073652;28;20380;-63
2022/01/16 06:32:44;;;;;;;4.35;3.35;;;;;;;;;;5073582;28;20062;-69
2022/01/16 06:35:11;;;;;;;4.93;3.45;;;;;;;;;;5055573;28;20016;-67
2022/01/16 06:37:37;;;;;;;5.35;3.50;;;;;;;;;;5053257;28;20451;-63
2022/01/16 06:40:04;;;;;;;3.92;2.67;;;;;;;;;;5053371;28;20037;-63
2022/01/16 06:42:30;;;;;;;8.65;2.70;;;;;;;;;;5053617;28;20039;-65
2022/01/16 06:44:56;;;;;;;6.75;2.78;;;;;;;;;;5053743;28;20067;-62
2022/01/16 06:47:22;;;;;;;4.80;2.80;;;;;;;;;;5053232;28;20448;-63
2022/01/16 06:49:48;;;;;;;5.47;2.90;;;;;;;;;;5052934;28;20035;-65
2022/01/16 06:52:14;;;;;;;5.35;2.53;;;;;;;;;;5053022;28;20032;-63
2022/01/16 06:54:40;;;;;;;6.25;2.53;;;;;;;;;;5053064;28;20029;-66
2022/01/16 06:57:07;;;;;;;3.45;2.60;;;;;;;;;;5053014;28;20060;-68
2022/01/16 06:59:34;;;;;;;5.57;2.60;;;;;;;;;;5053242;28;20025;-66
2022/01/16 07:02:01;;;;;;;3.92;2.30;;;;;;;;;;5053030;28;20021;-63
2022/01/16 07:04:27;;;;;;;5.93;2.60;;;;;;;;;;5068711;28;20472;-66
2022/01/16 07:06:53;;;;;;;4.40;2.13;;;;;;;;;;5063416;28;20082;-67
2022/01/16 07:09:19;;;;;;;5.70;2.17;;;;;;;;;;5054241;28;20029;-64
2022/01/16 07:11:45;;;;;;;3.97;2.30;;;;;;;;;;5077275;28;20460;-65
2022/01/16 07:14:11;;;;;;;3.08;2.00;;;;;;;;;;5072615;28;20025;-63
2022/01/16 07:16:37;;;;;;;3.45;2.10;;;;;;;;;;5072494;28;20037;-71
2022/01/16 07:19:03;;;;;;;3.22;2.00;;;;;;;;;;5073136;28;20238;-69
2022/01/16 07:21:29;;;;;;;4.35;2.00;;;;;;;;;;5072846;28;20028;-65
2022/01/16 07:23:55;;;;;;;2.85;1.85;;;;;;;;;;5061098;28;20395;-66
2022/01/16 07:26:21;;;;;;;7.68;2.33;;;;;;;;;;5052806;28;20032;-65
2022/01/16 07:28:47;;;;;;;3.40;2.13;;;;;;;;;;5065493;28;20044;-67
2022/01/16 07:31:13;;;;;;;3.42;2.10;;;;;;;;;;5072771;28;20025;-65
2022/01/16 07:33:39;;;;;;;4.90;2.30;;;;;;;;;;5072756;28;20024;-65
2022/01/16 07:36:06;;;;;;;10.00;2.15;;;;;;;;;;5056711;28;20442;-64
2022/01/16 07:38:32;;;;;;;6.55;1.92;;;;;;;;;;5076780;28;20024;-67
2022/01/16 07:40:58;;;;;;;5.95;1.90;;;;;;;;;;5076696;28;20028;-67
2022/01/16 07:43:24;;;;;;;3.70;1.73;;;;;;;;;;5076685;28;20036;-65
2022/01/16 07:45:50;;;;;;;12.45;2.03;;;;;;;;;;5076775;28;20024;-65
2022/01/16 07:48:16;;;;;;;4.60;2.28;;;;;;;;;;5076784;28;20028;-64
2022/01/16 07:50:42;;;;;;;4.03;2.30;;;;;;;;;;5076544;28;20050;-66
2022/01/16 07:53:09;;;;;;;6.35;2.25;;;;;;;;;;5075979;28;20120;-67
2022/01/16 07:55:35;;;;;;;4.70;2.40;;;;;;;;;;5075303;28;20056;-65
2022/01/16 07:58:01;;;;;;;10.30;2.70;;;;;;;;;;5076240;28;20036;-66
2022/01/16 08:00:28;;;;;;;5.53;2.75;;;;;;;;;;5076202;28;20060;-64
2022/01/16 08:02:54;;;;;;;11.80;2.85;;;;;;;;;;5075993;28;20395;-65
2022/01/16 08:05:20;;;;;;;5.60;2.75;;;;;;;;;;5075851;28;20025;-66
2022/01/16 08:07:46;;;;;;;8.10;2.40;;;;;;;;;;5075489;28;20032;-66
2022/01/16 08:10:13;;;;;;;7.78;2.70;;;;;;;;;;5070500;28;20392;-65
2022/01/16 08:12:39;;;;;;;4.13;2.20;;;;;;;;;;5092816;28;20020;-68
2022/01/16 08:15:07;;;;;;;4.75;2.72;;;;;;;;;;5096012;28;20016;-67
2022/01/16 08:17:36;;;;;;;6.72;2.67;;;;;;;;;;5096048;28;20122;-67
2022/01/16 08:20:02;;;;;;;5.47;2.97;;;;;;;;;;5096058;28;20101;-65
2022/01/16 08:22:28;;;;;;;6.65;2.90;;;;;;;;;;5077661;28;20024;-68
2022/01/16 08:24:54;;;;;;;5.30;2.35;;;;;;;;;;5077907;28;20070;-65
2022/01/16 08:27:20;;;;;;;5.70;2.80;;;;;;;;;;5094953;28;20036;-64
2022/01/16 08:29:46;;;;;;;5.10;3.03;;;;;;;;;;5057540;28;20434;-66
2022/01/16 08:32:12;;;;;;;11.80;3.67;;;;;;;;;;5075618;28;20036;-66
2022/01/16 08:34:38;;;;;;;5.68;3.00;;;;;;;;;;5075361;28;20383;-65
2022/01/16 08:37:04;;;;;;;8.93;2.88;;;;;;;;;;5075217;28;20032;-64
2022/01/16 08:39:30;;;;;;;11.25;3.30;;;;;;;;;;5057293;28;20096;-68
2022/01/16 08:41:56;;;;;;;5.65;2.70;;;;;;;;;;5063833;28;20116;-64
2022/01/16 08:44:23;;;;;;;9.80;3.38;;;;;;;;;;5057142;28;20029;-66
2022/01/16 08:46:49;;;;;;;5.55;2.83;;;;;;;;;;5057026;28;20036;-65
2022/01/16 08:49:15;;;;;;;9.15;3.05;;;;;;;;;;5075323;28;20021;-64
2022/01/16 08:51:41;;;;;;;6.70;3.33;;;;;;;;;;5075116;28;20059;-65
2022/01/16 08:54:07;;;;;;;5.93;3.00;;;;;;;;;;5075152;28;20031;-66
2022/01/16 08:56:33;;;;;;;8.23;3.25;;;;;;;;;;5074808;28;20045;-68
2022/01/16 08:58:59;;;;;;;9.05;3.90;;;;;;;;;;5057232;28;20036;-65
2022/01/16 09:01:25;;;;;;;7.65;3.10;;;;;;;;;;5075020;28;20046;-65
2022/01/16 09:03:51;;;;;;;7.20;3.10;;;;;;;;;;5063737;28;20029;-66
2022/01/16 09:06:17;;;;;;;10.60;3.00;;;;;;;;;;5054620;28;20036;-66
2022/01/16 09:08:43;;;;;;;6.25;3.10;;;;;;;;;;5036198;28;20103;-67
2022/01/16 09:11:09;;;;;;;13.10;3.70;;;;;;;;;;5066696;28;20016;-65
2022/01/16 09:13:37;;;;;;;11.70;3.42;;;;;;;;;;5095082;28;20036;-67
2022/01/16 09:16:03;;;;;;;9.98;2.90;;;;;;;;;;5077145;28;20568;-67
2022/01/16 09:18:29;;;;;;;6.18;3.05;;;;;;;;;;5094285;28;20085;-69
2022/01/16 09:20:56;;;;;;;7.25;3.30;;;;;;;;;;5094202;28;20024;-65
2022/01/16 09:23:22;;;;;;;7.03;2.90;;;;;;;;;;5094658;28;20032;-67
2022/01/16 09:25:48;;;;;;;11.43;2.80;;;;;;;;;;5074672;28;20131;-65
2022/01/16 09:28:14;;;;;;;6.55;3.35;;;;;;;;;;5062315;28;20016;-66
2022/01/16 09:30:42;;;;;;;6.65;2.83;;;;;;;;;;5073923;28;20086;-66
2022/01/16 09:33:08;;;;;;;6.95;3.35;;;;;;;;;;5073785;28;20446;-66
2022/01/16 09:35:34;;;;;;;6.95;3.15;;;;;;;;;;5056236;28;20020;-70
2022/01/16 09:38:00;;;;;;;9.13;3.30;;;;;;;;;;5074315;28;20100;-66
2022/01/16 09:40:26;;;;;;;7.30;2.90;;;;;;;;;;5072884;28;20107;-67
2022/01/16 09:42:53;;;;;;;9.07;3.10;;;;;;;;;;5056143;28;20120;-68
2022/01/16 09:45:19;;;;;;;7.63;3.03;;;;;;;;;;5058120;28;20033;-68
2022/01/16 09:47:46;;;;;;;10.27;3.42;;;;;;;;;;5074142;28;20086;-70
2022/01/16 09:50:14;;;;;;;9.80;3.13;;;;;;;;;;5074118;28;20051;-70
2022/01/16 09:52:41;;;;;;;6.05;2.75;;;;;;;;;;5073621;28;20086;-71
2022/01/16 09:55:07;;;;;;;4.57;2.70;;;;;;;;;;5056245;28;20101;-71
2022/01/16 09:57:34;;;;;;;8.93;3.47;;;;;;;;;;5073489;28;20036;-67
2022/01/16 10:00:00;;;;;;;10.50;3.17;;;;;;;;;;5072958;28;20074;-70
2022/01/16 10:02:26;;;;;;;9.98;3.20;;;;;;;;;;5071500;28;20111;-70
2022/01/16 10:04:55;;;;;;;7.80;2.95;;;;;;;;;;5077082;28;20090;-71
2022/01/16 10:07:21;;;;;;;10.20;3.13;;;;;;;;;;5054277;28;20696;-72
2022/01/16 10:10:06;;;;;;;13.45;3.35;;;;;;;;;;5072420;28;20036;-70
2022/01/16 10:12:34;;;;;;;9.63;3.60;;;;;;;;;;5090463;28;20028;-70
2022/01/16 10:15:15;;;;;;;5.88;3.60;;;;;;;;;;5075589;28;20031;-67
2022/01/16 10:17:45;;;;;;;8.38;3.83;;;;;;;;;;5073332;28;20485;-71
2022/01/16 10:20:12;;;;;;;18.33;4.63;;;;;;;;;;5054979;28;20747;-70
2022/01/16 10:22:38;;;;;;;7.80;4.35;;;;;;;;;;5072772;28;20028;-71
2022/01/16 10:25:04;;;;;;;15.20;4.93;;;;;;;;;;5073015;28;20032;-68
2022/01/16 10:27:34;;;;;;;9.50;4.75;;;;;;;;;;5070666;28;20036;-73
2022/01/16 10:30:02;;;;;;;12.45;6.72;;;;;;;;;;5073423;28;20050;-71
2022/01/16 10:32:32;;;;;;;19.40;6.55;;;;;;;;;;5052329;28;20086;-71
2022/01/16 10:35:17;;;;;;;12.18;6.00;;;;;;;;;;5054182;28;20375;-68
2022/01/16 10:37:47;;;;;;;11.93;6.22;;;;;;;;;;5073074;28;20430;-73
2022/01/16 10:40:19;;;;;;;18.20;7.45;;;;;;;;;;5074112;28;20067;-71
2022/01/16 10:42:53;;;;;;;12.63;7.00;;;;;;;;;;5074138;28;20020;-71
2022/01/16 10:45:22;;;;;;;13.65;7.50;;;;;;;;;;5068740;28;20077;-73
2022/01/16 10:47:53;;;;;;;13.32;7.38;;;;;;;;;;5073230;28;20062;-73
2022/01/16 10:50:20;;;;;;;19.42;9.23;;;;;;;;;;5055202;28;20016;-72
2022/01/16 10:52:51;;;;;;;20.80;8.43;;;;;;;;;;5055129;28;20103;-72
2022/01/16 10:55:18;;;;;;;15.40;8.68;;;;;;;;;;5069962;28;20079;-68
2022/01/16 10:57:45;;;;;;;15.80;9.25;;;;;;;;;;5071708;28;20044;-72
2022/01/16 11:00:15;;;;;;;18.92;9.30;;;;;;;;;;5073223;28;20028;-70
2022/01/16 11:02:42;;;;;;;16.17;10.23;;;;;;;;;;5053643;28;20067;-74
2022/01/16 11:05:18;;;;;;;21.23;10.68;;;;;;;;;;5069514;28;20118;-71
2022/01/16 11:07:44;;;;;;;19.42;10.77;;;;;;;;;;5072915;28;20503;-70
2022/01/16 11:10:19;;;;;;;17.85;10.32;;;;;;;;;;5071988;28;20103;-70
2022/01/16 11:12:45;;;;;;;20.40;10.00;;;;;;;;;;5072492;28;20025;-71
2022/01/16 11:15:11;;;;;;;21.05;11.10;;;;;;;;;;5054486;28;20189;-70
2022/01/16 11:17:38;;;;;;;21.15;11.40;;;;;;;;;;5072924;28;20028;-70
2022/01/16 11:20:05;;;;;;;19.67;11.30;;;;;;;;;;5072936;28;20025;-71
2022/01/16 11:22:35;;;;;;;18.88;10.60;;;;;;;;;;5054288;28;20029;-71
2022/01/16 11:25:12;;;;;;;18.75;10.80;;;;;;;;;;5054466;28;20016;-67
2022/01/16 11:27:40;;;;;;;23.58;11.13;;;;;;;;;;5055131;28;20032;-70
2022/01/16 11:30:06;;;;;;;20.70;11.65;;;;;;;;;;5067089;28;20028;-71
2022/01/16 11:32:32;;;;;;;22.05;11.48;;;;;;;;;;5056540;28;20039;-71
2022/01/16 11:34:58;;;;;;;19.73;11.95;;;;;;;;;;5072493;28;20097;-68
2022/01/16 11:37:24;;;;;;;21.48;12.18;;;;;;;;;;5066643;28;20025;-69
2022/01/16 11:39:50;;;;;;;23.15;12.48;;;;;;;;;;5034621;28;20176;-71
2022/01/16 11:42:25;;;;;;;21.98;11.93;;;;;;;;;;5035270;28;20064;-72
2022/01/16 11:44:52;;;;;;;20.50;11.48;;;;;;;;;;5034502;28;20032;-69
2022/01/16 11:47:18;;;;;;;24.88;13.00;;;;;;;;;;5052283;28;20445;-69
2022/01/16 11:49:44;;;;;;;26.00;13.25;;;;;;;;;;5058857;28;20060;-70
2022/01/16 11:52:15;;;;;;;23.05;13.13;;;;;;;;;;5036953;28;20468;-70
2022/01/16 11:54:42;;;;;;;30.17;14.48;;;;;;;;;;5052326;28;20357;-67
2022/01/16 11:57:19;;;;;;;22.95;13.25;;;;;;;;;;5054177;28;20110;-69
2022/01/16 11:59:46;;;;;;;27.48;14.05;;;;;;;;;;5052291;28;20136;-68
2022/01/16 12:02:12;;;;;;;29.50;12.50;;;;;;;;;;5052348;28;20071;-66
2022/01/16 12:04:41;;;;;;;35.28;14.00;;;;;;;;;;5069471;28;20740;-71
2022/01/16 12:07:13;;;;;;;30.80;13.02;;;;;;;;;;5061899;28;20033;-66
2022/01/16 12:12:11;;;;;;;27.03;11.60;;;;;;;;;;5081513;28;20049;-68
2022/01/16 12:14:59;;;;;;;29.85;11.85;;;;;;;;;;5093787;28;20429;-68
2022/01/16 12:17:32;;;;;;;31.48;12.20;;;;;;;;;;5051779;28;20033;-71
2022/01/16 12:20:00;;;;;;;31.05;11.27;;;;;;;;;;5051907;28;20483;-69
2022/01/16 12:22:42;;;;;;;37.55;9.85;;;;;;;;;;5053707;28;20029;-69
2022/01/16 12:25:27;;;;;;;29.13;9.80;;;;;;;;;;5055548;28;20025;-69
2022/01/16 12:28:02;;;;;;;21.48;9.65;;;;;;;;;;5067066;28;20211;-68
2022/01/16 12:30:37;;;;;;;33.05;9.18;;;;;;;;;;5075239;28;20025;-66
2022/01/16 12:33:11;;;;;;;22.58;10.20;;;;;;;;;;5073929;28;20137;-70
2022/01/16 12:35:39;;;;;;;24.02;9.35;;;;;;;;;;5074881;28;20036;-69
2022/01/16 12:38:09;;;;;;;21.85;9.60;;;;;;;;;;5068186;28;20087;-70
2022/01/16 12:40:35;;;;;;;24.63;9.68;;;;;;;;;;5055464;28;20032;-69
2022/01/16 12:43:05;;;;;;;23.27;9.07;;;;;;;;;;5065881;28;20027;-70
2022/01/16 12:45:37;;;;;;;12.73;7.75;;;;;;;;;;5095626;28;20479;-66
2022/01/16 12:48:03;;;;;;;19.85;8.55;;;;;;;;;;5095586;28;20039;-70
2022/01/16 12:50:30;;;;;;;34.17;9.00;;;;;;;;;;5095302;28;20068;-68
2022/01/16 12:52:56;;;;;;;21.35;8.50;;;;;;;;;;5095291;28;20457;-69
2022/01/16 12:55:31;;;;;;;23.08;8.57;;;;;;;;;;5095290;28;20055;-71
2022/01/16 12:58:16;;;;;;;12.85;6.75;;;;;;;;;;5095267;28;20413;-70
2022/01/16 13:00:58;;;;;;;14.32;6.82;;;;;;;;;;5095037;28;20034;-70
2022/01/16 13:03:28;;;;;;;16.27;6.75;;;;;;;;;;5069431;28;20025;-71
2022/01/16 13:06:12;;;;;;;17.27;7.07;;;;;;;;;;5054103;28;20037;-70
2022/01/16 13:08:56;;;;;;;14.10;6.05;;;;;;;;;;5067567;28;20041;-68
2022/01/16 13:11:24;;;;;;;11.57;6.75;;;;;;;;;;5056450;28;20468;-68
2022/01/16 13:13:51;;;;;;;9.93;5.53;;;;;;;;;;5073365;28;20042;-69
2022/01/16 13:16:27;;;;;;;9.73;5.20;;;;;;;;;;5073276;28;20029;-65
2022/01/16 13:19:15;;;;;;;11.25;5.75;;;;;;;;;;5054958;28;20692;-68
2022/01/16 13:21:48;;;;;;;10.45;4.95;;;;;;;;;;5069687;28;20402;-68
2022/01/16 13:24:31;;;;;;;11.15;5.00;;;;;;;;;;5073157;28;20020;-68
2022/01/16 13:26:58;;;;;;;9.10;4.90;;;;;;;;;;5053869;28;20024;-68
2022/01/16 13:29:24;;;;;;;9.40;5.07;;;;;;;;;;5072683;28;20020;-66
2022/01/16 13:31:51;;;;;;;14.57;4.93;;;;;;;;;;5072708;28;20139;-68
2022/01/16 13:34:18;;;;;;;10.90;4.38;;;;;;;;;;5071970;28;20047;-69
2022/01/16 13:36:51;;;;;;;9.80;4.88;;;;;;;;;;5070441;28;20024;-68
2022/01/16 13:39:32;;;;;;;9.43;4.47;;;;;;;;;;5053497;28;20017;-69
2022/01/16 13:42:11;;;;;;;7.85;4.80;;;;;;;;;;5071583;28;20016;-65
2022/01/16 13:44:37;;;;;;;5.90;3.78;;;;;;;;;;5055654;28;20025;-65
2022/01/16 13:47:03;;;;;;;7.85;4.00;;;;;;;;;;5072657;28;20055;-69
2022/01/16 13:49:29;;;;;;;6.90;3.50;;;;;;;;;;5072484;28;20464;-69
2022/01/16 13:51:59;;;;;;;6.38;4.00;;;;;;;;;;5084617;28;20047;-66
2022/01/16 13:54:30;;;;;;;9.05;4.60;;;;;;;;;;5093555;28;20039;-65
2022/01/16 13:57:02;;;;;;;8.02;3.90;;;;;;;;;;5070391;28;20061;-66
2022/01/16 13:59:28;;;;;;;8.30;4.25;;;;;;;;;;5070443;28;20124;-67
2022/01/16 14:01:55;;;;;;;6.50;3.83;;;;;;;;;;5072494;28;20137;-68
2022/01/16 14:04:22;;;;;;;9.25;3.95;;;;;;;;;;5072951;28;20021;-67
2022/01/16 14:06:52;;;;;;;7.97;4.00;;;;;;;;;;5072208;28;20483;-67
2022/01/16 14:09:23;;;;;;;9.73;4.40;;;;;;;;;;5072461;28;20025;-67
2022/01/16 14:11:53;;;;;;;12.27;3.88;;;;;;;;;;5065918;28;20024;-66
2022/01/16 14:14:20;;;;;;;11.50;3.92;;;;;;;;;;5092411;28;20020;-68
2022/01/16 14:17:02;;;;;;;8.70;4.20;;;;;;;;;;5092207;28;20032;-67
2022/01/16 14:22:15;;;;;;;7.00;3.80;;;;;;;;;;5093096;28;20042;-68
2022/01/16 14:24:51;;;;;;;9.23;4.15;;;;;;;;;;5092988;28;20020;-68
2022/01/16 14:27:17;;;;;;;6.10;3.78;;;;;;;;;;5092691;28;20119;-69
2022/01/16 14:29:44;;;;;;;6.53;3.55;;;;;;;;;;5055129;28;20151;-68
2022/01/16 14:32:10;;;;;;;11.68;4.32;;;;;;;;;;5073445;28;20036;-68
2022/01/16 14:34:37;;;;;;;9.57;3.88;;;;;;;;;;5071156;28;20492;-67
2022/01/16 14:37:03;;;;;;;8.93;4.22;;;;;;;;;;5072076;28;20105;-67
2022/01/16 14:39:30;;;;;;;8.55;4.25;;;;;;;;;;5055155;28;20211;-68
2022/01/16 14:41:56;;;;;;;16.85;4.00;;;;;;;;;;5052757;28;20033;-68
2022/01/16 14:44:23;;;;;;;7.10;3.67;;;;;;;;;;5052549;28;20017;-68
2022/01/16 14:46:49;;;;;;;6.45;3.63;;;;;;;;;;5037075;28;20061;-65
2022/01/16 14:49:15;;;;;;;7.03;4.03;;;;;;;;;;5056431;28;20025;-66
2022/01/16 14:51:42;;;;;;;9.10;3.72;;;;;;;;;;5053624;28;20071;-68
2022/01/16 14:54:08;;;;;;;8.90;3.97;;;;;;;;;;5071911;28;20565;-70
2022/01/16 14:56:34;;;;;;;11.23;3.50;;;;;;;;;;5064792;28;20041;-72
2022/01/16 14:59:00;;;;;;;8.07;3.97;;;;;;;;;;5033676;28;20032;-70
2022/01/16 15:01:27;;;;;;;10.70;3.35;;;;;;;;;;5051319;28;20118;-69
2022/01/16 15:03:53;;;;;;;17.02;3.75;;;;;;;;;;5062534;28;20372;-71
2022/01/16 15:06:19;;;;;;;10.75;3.53;;;;;;;;;;5053076;28;20078;-67
2022/01/16 15:08:46;;;;;;;11.63;3.78;;;;;;;;;;5071269;28;20032;-70
2022/01/16 15:11:13;;;;;;;9.57;3.63;;;;;;;;;;5077468;28;20031;-69
2022/01/16 15:13:39;;;;;;;6.70;3.58;;;;;;;;;;5091188;28;20032;-68
2022/01/16 15:16:06;;;;;;;8.65;4.00;;;;;;;;;;5091426;28;20024;-68
2022/01/16 15:18:34;;;;;;;9.30;4.88;;;;;;;;;;5073041;28;20460;-69
2022/01/16 15:21:02;;;;;;;8.77;4.00;;;;;;;;;;5067638;28;20033;-69
2022/01/16 15:23:28;;;;;;;7.18;3.45;;;;;;;;;;5068586;28;20032;-69
2022/01/16 15:25:56;;;;;;;11.50;4.10;;;;;;;;;;5071065;28;20028;-70